Flight Track Log - Related Links

Times and Time Zones

All times are in EDT time to prevent confusion due to time zone crossing. See the N531RQ flight status page for this flight to view local times or setup timezone preferences in your user account.

Time Position Orientation Groundspeed Altitude Reporting Facility
EDT Latitude Longitude Course Direction KTS MPH feet Rate Location/Type
Thu 08:24:58 PM 51.1000 -114.0333 115° Southeast 160 184 4,800  Level Edmonton Center
Thu 08:25:58 PM 51.1500 -114.0500 348° North 220 253 7,900 3,050 Climbing Edmonton Center
Thu 08:26:58 PM 51.1833 -113.9667 57° Northeast 270 311 10,900 3,400 Climbing Edmonton Center
Thu 08:27:58 PM 51.1167 -113.8833 142° Southeast 290 334 14,700 3,500 Climbing Edmonton Center
Thu 08:28:58 PM 51.0500 -113.7500 128° Southeast 320 368 17,900 3,000 Climbing Edmonton Center
Thu 08:29:58 PM 51.0167 -113.6333 114° Southeast 350 403 20,700 2,800 Climbing Edmonton Center
Thu 08:30:00 PM 50.7823 -113.0661 115° Southeast  Level FlightAware Approximate
Thu 08:30:58 PM 50.9667 -113.4667 115° Southeast 370 426 23,500  Level Edmonton Center
Thu 08:31:58 PM 50.9167 -113.3500 124° Southeast 370 426 26,100 2,550 Climbing Edmonton Center
Thu 08:32:58 PM 50.8667 -113.2000 118° Southeast 380 437 28,600 2,400 Climbing Edmonton Center
Thu 08:33:58 PM 50.8000 -113.0333 122° Southeast 380 437 30,900 2,050 Climbing Edmonton Center
Thu 08:34:58 PM 50.7500 -112.9000 121° Southeast 390 449 32,700 1,650 Climbing Edmonton Center
Thu 08:35:58 PM 50.6833 -112.7500 125° Southeast 410 472 34,200 1,500 Climbing Edmonton Center
Thu 08:36:58 PM 50.6167 -112.5833 122° Southeast 420 483 35,700 1,500 Climbing Edmonton Center
Thu 08:37:58 PM 50.5667 -112.4000 113° Southeast 430 495 37,200 1,450 Climbing Edmonton Center
Thu 08:38:58 PM 50.5000 -112.2667 128° Southeast 430 495 38,600 900 Climbing Edmonton Center
Thu 08:39:58 PM 50.4333 -112.0833 120° Southeast 430 495 39,000 200 Climbing Edmonton Center
Thu 08:40:58 PM 50.3833 -111.9167 115° Southeast 450 518 39,000  Level Edmonton Center
Thu 08:41:58 PM 50.3000 -111.7500 128° Southeast 460 529 39,000  Level Edmonton Center
Thu 08:42:58 PM 50.2333 -111.5833 122° Southeast 470 541 39,000  Level Edmonton Center
Thu 08:43:58 PM 50.1667 -111.4167 122° Southeast 470 541 39,000  Level Edmonton Center
Thu 08:44:58 PM 50.1000 -111.2167 117° Southeast 470 541 39,000  Level Edmonton Center
Thu 08:45:58 PM 50.0167 -111.0500 128° Southeast 480 552 39,000  Level Edmonton Center
Thu 08:46:58 PM 49.9500 -110.8667 119° Southeast 480 552 39,000  Level Edmonton Center
Thu 08:47:58 PM 49.9333 -110.6667 97° East 470 541 39,000  Level Edmonton Center
Thu 08:48:58 PM 49.9000 -110.4667 104° East 460 529 39,000  Level Edmonton Center
Thu 08:49:58 PM 49.8833 -110.2667 97° East 460 529 39,000  Level Edmonton Center
Thu 08:50:58 PM 49.8500 -110.0667 104° East 460 529 39,000  Level Edmonton Center
Thu 08:51:58 PM 49.8500 -109.8833 90° East 460 529 39,000  Level Edmonton Center
Thu 08:52:58 PM 49.8167 -109.6833 104° East 460 529 39,000  Level Edmonton Center
Thu 08:53:37 PM 49.8167 -109.5833 90° East 460 529 39,000  Level Winnipeg Center
Thu 08:54:37 PM 49.7833 -109.3833 104° East 460 529 39,000  Level Winnipeg Center
Thu 08:54:58 PM 49.7667 -109.3000 107° East 460 529 39,000  Level Edmonton Center
Thu 08:55:58 PM 49.7500 -109.0833 97° East 460 529 39,000  Level Edmonton Center
Thu 08:56:37 PM 49.7500 -108.9833 90° East 460 529 39,000  Level Winnipeg Center
Thu 08:57:37 PM 49.7167 -108.8000 106° East 460 529 39,000  Level Winnipeg Center
Thu 08:58:37 PM 49.7000 -108.6167 98° East 460 529 39,000  Level Winnipeg Center
Thu 08:59:37 PM 49.6667 -108.4167 104° East 460 529 39,000  Level Winnipeg Center
Thu 08:59:58 PM 49.6500 -108.3167 104° East 460 529 39,000  Level Edmonton Center
Thu 09:00:37 PM 49.6333 -108.2000 102° East 460 529 39,000  Level Winnipeg Center
Thu 09:01:37 PM 49.6333 -108.0167 90° East 460 529 39,000  Level Winnipeg Center
Thu 09:02:37 PM 49.6000 -107.8000 103° East 470 541 39,000  Level Winnipeg Center
Thu 09:03:37 PM 49.5833 -107.6167 98° East 470 541 39,000  Level Winnipeg Center
Thu 09:04:37 PM 49.5500 -107.4333 106° East 470 541 39,000  Level Winnipeg Center
Thu 09:05:37 PM 49.5333 -107.2500 98° East 470 541 39,000  Level Winnipeg Center
Thu 09:06:37 PM 49.5000 -107.0500 104° East 460 529 39,000  Level Winnipeg Center
Thu 09:07:37 PM 49.4667 -106.8500 104° East 460 529 39,000  Level Winnipeg Center
Thu 09:08:37 PM 49.4500 -106.6500 97° East 460 529 39,000  Level Winnipeg Center
Thu 09:09:37 PM 49.4167 -106.4667 106° East 460 529 39,000  Level Winnipeg Center
Thu 09:10:37 PM 49.4000 -106.2667 97° East 460 529 39,000  Level Winnipeg Center
Thu 09:11:37 PM 49.3667 -106.0667 104° East 460 529 39,000  Level Winnipeg Center
Thu 09:12:37 PM 49.3500 -105.8833 98° East 460 529 39,000  Level Winnipeg Center
Thu 09:13:37 PM 49.3167 -105.7000 106° East 460 529 39,000  Level Winnipeg Center
Thu 09:14:37 PM 49.2833 -105.5000 104° East 460 529 39,000  Level Winnipeg Center
Thu 09:15:37 PM 49.2500 -105.3000 104° East 470 541 39,000  Level Winnipeg Center
Thu 09:16:37 PM 49.2167 -105.1167 105° East 470 541 39,000  Level Winnipeg Center
Thu 09:17:37 PM 49.2000 -104.9333 98° East 470 541 39,000  Level Winnipeg Center
Thu 09:18:37 PM 49.1667 -104.7500 105° East 460 529 39,000  Level Winnipeg Center
Thu 09:19:37 PM 49.1333 -104.5333 103° East 460 529 39,000  Level Winnipeg Center
Thu 09:20:37 PM 49.1000 -104.3500 105° East 450 518 39,000  Level Winnipeg Center
Thu 09:21:09 PM 49.1167 -104.2736 72° East 460 529 39,000  Level Salt Lake Center
Thu 09:22:10 PM 49.0806 -104.0486 104° East 458 527 39,000  Level Salt Lake Center
Thu 09:22:37 PM 49.0500 -103.9833 126° Southeast 460 529 39,000  Level Winnipeg Center
Thu 09:23:37 PM 49.0167 -103.7833 104° East 460 529 39,000  Level Winnipeg Center
Thu 09:24:37 PM 48.9833 -103.6000 105° East 450 518 39,000  Level Winnipeg Center
Thu 09:25:37 PM 48.9667 -103.4167 98° East 450 518 39,000  Level Winnipeg Center
Thu 09:26:37 PM 48.9167 -103.2333 112° Southeast 450 518 39,000  Level Winnipeg Center
Thu 09:27:37 PM 48.9000 -103.0500 98° East 450 518 39,000  Level Winnipeg Center
Thu 09:28:37 PM 48.8500 -102.8667 112° Southeast 450 518 39,000  Level Winnipeg Center
Thu 09:29:04 PM 48.8653 -102.7819 75° East 455 524 39,000  Level Minneapolis Center
Thu 09:30:06 PM 48.8314 -102.5942 105° East 460 529 39,000  Level Minneapolis Center
Thu 09:30:37 PM 48.8000 -102.4833 113° Southeast 450 518 39,000  Level Winnipeg Center
Thu 09:31:37 PM 48.7667 -102.3000 105° East 450 518 39,000  Level Winnipeg Center
Thu 09:32:37 PM 48.7333 -102.1167 105° East 450 518 39,000  Level Winnipeg Center
Thu 09:33:37 PM 48.7000 -101.9333 105° East 450 518 39,000  Level Winnipeg Center
Thu 09:34:14 PM 48.6919 -101.8228 96° East 453 521 39,000  Level Minneapolis Center
Thu 09:35:16 PM 48.6575 -101.6403 106° East 452 520 39,000  Level Minneapolis Center
Thu 09:36:18 PM 48.6167 -101.4614 109° East 451 519 39,000  Level Minneapolis Center
Thu 09:37:20 PM 48.5722 -101.2806 110° East 456 525 39,000  Level Minneapolis Center
Thu 09:38:21 PM 48.5272 -101.0883 109° East 458 527 39,000  Level Minneapolis Center
Thu 09:39:23 PM 48.4839 -100.9078 110° East 458 527 39,000  Level Minneapolis Center
Thu 09:40:25 PM 48.4417 -100.7264 109° East 460 529 39,000  Level Minneapolis Center
Thu 09:41:27 PM 48.3983 -100.5475 110° East 457 526 39,000  Level Minneapolis Center
Thu 09:42:29 PM 48.3461 -100.3336 110° East 456 525 39,000  Level Minneapolis Center
Thu 09:43:31 PM 48.3022 -100.1550 110° East 456 525 39,000  Level Minneapolis Center
Thu 09:44:33 PM 48.2594 -99.9781 110° East 453 521 39,000  Level Minneapolis Center
Thu 09:45:35 PM 48.2156 -99.8017 110° East 453 521 39,000  Level Minneapolis Center
Thu 09:46:36 PM 48.1733 -99.6261 110° East 451 519 39,000  Level Minneapolis Center
Thu 09:47:38 PM 48.1292 -99.4531 111° Southeast 447 514 39,000  Level Minneapolis Center
Thu 09:48:40 PM 48.0869 -99.2767 110° East 449 517 39,000  Level Minneapolis Center
Thu 09:49:42 PM 48.0333 -99.0686 111° Southeast 450 518 39,000  Level Minneapolis Center
Thu 09:50:44 PM 47.9875 -98.8961 112° Southeast 449 517 39,000  Level Minneapolis Center
Thu 09:51:46 PM 47.9419 -98.7261 112° Southeast 446 513 39,000  Level Minneapolis Center
Thu 09:52:48 PM 47.8972 -98.5531 111° Southeast 446 513 39,000  Level Minneapolis Center
Thu 09:53:49 PM 47.8517 -98.3808 111° Southeast 447 514 39,000  Level Minneapolis Center
Thu 09:54:51 PM 47.8050 -98.2089 112° Southeast 447 514 39,000  Level Minneapolis Center
Thu 09:56:05 PM 47.7589 -98.0367 112° Southeast 447 514 39,000  Level Minneapolis Center
Thu 09:57:07 PM 47.6925 -97.7947 112° Southeast 445 512 39,000  Level Minneapolis Center
Thu 09:58:09 PM 47.6461 -97.6219 112° Southeast 444 511 39,000  Level Minneapolis Center
Thu 09:59:11 PM 47.6003 -97.4519 112° Southeast 443 510 39,000  Level Minneapolis Center
Thu 10:00:13 PM 47.5539 -97.2847 112° Southeast 439 505 39,000  Level Minneapolis Center
Thu 10:01:14 PM 47.5081 -97.1158 112° Southeast 440 506 39,000  Level Minneapolis Center
Thu 10:02:16 PM 47.4611 -96.9517 113° Southeast 436 502 39,000  Level Minneapolis Center
Thu 10:03:18 PM 47.4147 -96.7864 112° Southeast 436 502 39,000  Level Minneapolis Center
Thu 10:04:20 PM 47.3669 -96.6225 113° Southeast 435 501 39,000  Level Minneapolis Center
Thu 10:05:21 PM 47.3214 -96.4583 112° Southeast 433 498 39,000  Level Minneapolis Center
Thu 10:06:23 PM 47.2639 -96.2631 113° Southeast 434 499 39,000  Level Minneapolis Center
Thu 10:07:25 PM 47.2164 -96.1003 113° Southeast 433 498 39,000  Level Minneapolis Center
Thu 10:08:27 PM 47.1683 -95.9375 113° Southeast 434 499 39,000  Level Minneapolis Center
Thu 10:09:28 PM 47.1192 -95.7686 113° Southeast 435 501 39,000  Level Minneapolis Center
Thu 10:10:30 PM 47.0714 -95.6061 113° Southeast 436 502 39,000  Level Minneapolis Center
Thu 10:11:32 PM 47.0231 -95.4447 114° Southeast 435 501 39,000  Level Minneapolis Center
Thu 10:12:34 PM 46.9747 -95.2847 114° Southeast 433 498 39,000  Level Minneapolis Center
Thu 10:13:35 PM 46.9158 -95.0919 114° Southeast 434 499 39,000  Level Minneapolis Center
Thu 10:14:37 PM 46.8669 -94.9325 114° Southeast 433 498 39,000  Level Minneapolis Center
Thu 10:15:39 PM 46.8186 -94.7728 114° Southeast 433 498 39,000  Level Minneapolis Center
Thu 10:16:41 PM 46.7686 -94.6136 115° Southeast 433 498 39,000  Level Minneapolis Center
Thu 10:17:42 PM 46.7197 -94.4564 114° Southeast 430 495 39,000  Level Minneapolis Center
Thu 10:18:56 PM 46.6703 -94.2983 114° Southeast 430 495 39,000  Level Minneapolis Center
Thu 10:19:58 PM 46.6106 -94.1094 115° Southeast 431 496 39,000  Level Minneapolis Center
Thu 10:21:00 PM 46.5503 -93.9208 115° Southeast 431 496 39,000  Level Minneapolis Center
Thu 10:22:01 PM 46.5006 -93.7658 115° Southeast 429 494 39,000  Level Minneapolis Center
Thu 10:23:03 PM 46.4494 -93.6083 115° Southeast 432 497 39,000  Level Minneapolis Center
Thu 10:24:05 PM 46.3994 -93.4525 115° Southeast 432 497 39,000  Level Minneapolis Center
Thu 10:25:07 PM 46.3489 -93.2986 115° Southeast 430 495 39,000  Level Minneapolis Center
Thu 10:26:08 PM 46.2981 -93.1447 116° Southeast 429 494 39,000  Level Minneapolis Center
Thu 10:27:10 PM 46.2358 -92.9606 116° Southeast 427 491 39,000  Level Minneapolis Center
Thu 10:28:12 PM 46.1856 -92.8050 115° Southeast 426 490 39,000  Level Minneapolis Center
Thu 10:29:13 PM 46.1347 -92.6506 115° Southeast 427 491 39,000  Level Minneapolis Center
Thu 10:30:15 PM 46.0819 -92.4986 117° Southeast 425 489 39,000  Level Minneapolis Center
Thu 10:31:17 PM 46.0311 -92.3450 115° Southeast 426 490 39,000  Level Minneapolis Center
Thu 10:32:18 PM 45.9797 -92.1925 116° Southeast 425 489 39,000  Level Minneapolis Center
Thu 10:33:20 PM 45.9275 -92.0425 117° Southeast 422 486 39,000  Level Minneapolis Center
Thu 10:34:21 PM 45.8669 -91.8611 116° Southeast 421 484 39,000  Level Minneapolis Center
Thu 10:35:23 PM 45.8144 -91.7117 117° Southeast 421 484 39,000  Level Minneapolis Center
Thu 10:36:25 PM 45.7656 -91.5722 117° Southeast 427 491 39,000  Level Minneapolis Center
Thu 10:37:26 PM 45.7131 -91.4197 116° Southeast 428 493 39,000  Level Minneapolis Center
Thu 10:38:27 PM 45.6589 -91.2689 117° Southeast 428 493 39,000  Level Minneapolis Center
Thu 10:39:29 PM 45.5950 -91.0869 117° Southeast 428 493 39,000  Level Minneapolis Center
Thu 10:40:31 PM 45.5403 -90.9364 117° Southeast 429 494 39,000  Level Minneapolis Center
Thu 10:41:33 PM 45.4864 -90.7853 117° Southeast 429 494 39,000 -49 Level Minneapolis Center
Thu 10:42:34 PM 45.4325 -90.6350 117° Southeast 428 493 38,900 -878 Descending Minneapolis Center
Thu 10:43:36 PM 45.3811 -90.4933 117° Southeast 410 472 37,200 -1,707 Descending Minneapolis Center
Thu 10:44:37 PM 45.3342 -90.3636 117° Southeast 381 438 35,400 -1,902 Descending Minneapolis Center
Thu 10:45:39 PM 45.2783 -90.2119 118° Southeast 365 420 33,300 -1,902 Descending Minneapolis Center
Thu 10:46:40 PM 45.2311 -90.0867 118° Southeast 362 417 31,500 -1,707 Descending Minneapolis Center
Thu 10:47:42 PM 45.1839 -89.9564 117° Southeast 368 423 29,800 -1,756 Descending Minneapolis Center
Thu 10:48:43 PM 45.1344 -89.8253 118° Southeast 375 432 27,900 -2,000 Descending Minneapolis Center
Thu 10:49:45 PM 45.0825 -89.6847 118° Southeast 383 441 25,700 -2,146 Descending Minneapolis Center
Thu 10:50:46 PM 45.0306 -89.5458 118° Southeast 396 456 23,500 -2,000 Descending Minneapolis Center
Thu 10:51:48 PM 44.9858 -89.4267 118° Southeast 406 467 21,600 -2,098 Descending Minneapolis Center
Thu 10:52:49 PM 44.9342 -89.2889 118° Southeast 399 459 19,200 -2,829 Descending Minneapolis Center
Thu 10:53:51 PM 44.8817 -89.1525 118° Southeast 336 387 15,800 -2,806 Descending Minneapolis Center
Thu 10:54:53 PM 44.8342 -89.0297 119° Southeast 309 356 13,400 -2,146 Descending Minneapolis Center
Thu 10:55:54 PM 44.7950 -88.9261 118° Southeast 300 345 11,400 -1,918 Descending Minneapolis Center
Thu 10:56:55 PM 44.7564 -88.8261 119° Southeast 293 337 9,500 -1,902 Descending Minneapolis Center
Thu 10:57:57 PM 44.7214 -88.7331 118° Southeast 273 314 7,500 -1,951 Descending Minneapolis Center
Thu 10:58:58 PM 44.6864 -88.6428 119° Southeast 265 305 5,500 -1,707 Descending Minneapolis Center
Thu 11:00:00 PM 44.6461 -88.5619 125° Southeast 260 299 4,000 -732 Descending Minneapolis Center
Thu 11:01:01 PM 44.5931 -88.5047 142° Southeast 248 285 4,000  Level Minneapolis Center
Thu 11:02:02 PM 44.5406 -88.4406 139° Southeast 246 283 4,000 -390 Level Minneapolis Center
Thu 11:03:04 PM 44.4931 -88.3797 138° Southeast 241 277 3,200 -732 Descending Minneapolis Center
Thu 11:04:05 PM 44.4450 -88.3178 137° Southeast 220 253 2,500 -341 Descending Minneapolis Center
Thu 11:05:07 PM 44.4342 -88.2636 106° East 190 219 2,500 -98 Level Minneapolis Center
Thu 11:06:08 PM 44.4519 -88.1994 69° East 196 226 2,300 -197 Descending Minneapolis Center
Thu 11:08:00 PM 44.4846 -88.1297 109° East  Level Estimated

Login

Don't have an account? Register now (free) for customized features, flight alerts, and more!